createdAt,value
2023-07-17T00:00:08.135Z,7.60
2023-07-17T00:02:58.471Z,6.80
2023-07-17T00:05:27.040Z,6.90
2023-07-17T00:07:55.721Z,6.80
2023-07-17T00:10:24.366Z,6.50
2023-07-17T00:12:52.839Z,7.20
2023-07-17T00:15:23.922Z,6.70
2023-07-17T00:17:52.427Z,7.10
2023-07-17T00:20:24.850Z,6.30
2023-07-17T00:22:53.477Z,6.00
2023-07-17T00:25:22.235Z,5.70
2023-07-17T00:27:50.946Z,6.40
2023-07-17T00:30:19.500Z,6.40
2023-07-17T00:32:47.903Z,6.70
2023-07-17T00:35:16.684Z,6.10
2023-07-17T00:37:47.506Z,6.80
2023-07-17T00:40:16.392Z,6.90
2023-07-17T00:42:44.722Z,6.40
2023-07-17T00:45:13.335Z,6.90
2023-07-17T00:47:43.800Z,5.60
2023-07-17T00:50:12.349Z,6.40
2023-07-17T00:52:41.990Z,7.60
2023-07-17T00:55:11.048Z,6.60
2023-07-17T00:57:41.352Z,6.30
2023-07-17T01:00:12.306Z,6.00
2023-07-17T01:02:41.862Z,6.50
2023-07-17T01:05:10.638Z,6.60
2023-07-17T01:07:40.560Z,6.40
2023-07-17T01:10:10.235Z,6.20
2023-07-17T01:12:39.165Z,6.60
2023-07-17T01:15:09.583Z,6.30
2023-07-17T01:17:38.033Z,6.00
2023-07-17T01:20:11.125Z,5.90
2023-07-17T01:23:01.263Z,6.50
2023-07-17T01:25:30.225Z,6.20
2023-07-17T01:27:58.888Z,5.20
2023-07-17T01:30:27.293Z,5.30
2023-07-17T01:32:55.988Z,7.90
2023-07-17T01:35:25.389Z,6.50
2023-07-17T01:37:53.825Z,6.80
2023-07-17T01:40:22.236Z,6.00
2023-07-17T01:42:50.687Z,6.40
2023-07-17T01:45:19.144Z,6.80
2023-07-17T01:47:47.742Z,6.70
2023-07-17T01:50:16.269Z,6.70
2023-07-17T01:52:44.821Z,6.00
2023-07-17T01:55:15.774Z,5.90
2023-07-17T01:57:44.086Z,6.80
2023-07-17T02:00:14.135Z,6.30
2023-07-17T02:02:42.502Z,5.90
2023-07-17T02:05:11.630Z,6.00
2023-07-17T02:07:40.729Z,6.00
2023-07-17T02:10:09.746Z,6.30
2023-07-17T02:12:38.024Z,5.90
2023-07-17T02:15:12.481Z,6.20
2023-07-17T02:17:41.528Z,6.10
2023-07-17T02:20:11.435Z,5.80
2023-07-17T02:22:39.877Z,6.20
2023-07-17T02:25:08.902Z,7.00
2023-07-17T02:27:37.084Z,6.10
2023-07-17T02:30:06.402Z,6.10
2023-07-17T02:32:35.251Z,6.00
2023-07-17T02:35:04.317Z,5.70
2023-07-17T02:37:33.096Z,5.60
2023-07-17T02:40:01.755Z,6.40
2023-07-17T02:42:29.778Z,6.10
2023-07-17T02:44:58.100Z,5.20
2023-07-17T02:47:26.510Z,4.80
2023-07-17T02:49:54.775Z,5.80
2023-07-17T02:52:23.057Z,6.20
2023-07-17T02:54:51.201Z,6.10
2023-07-17T02:57:19.679Z,5.90
2023-07-17T02:59:48.062Z,6.20
2023-07-17T03:02:17.480Z,5.80
2023-07-17T03:04:46.162Z,5.60
2023-07-17T03:07:14.545Z,6.90
2023-07-17T03:09:42.765Z,5.80
2023-07-17T03:12:12.922Z,6.70
2023-07-17T03:14:41.403Z,5.10
2023-07-17T03:17:09.690Z,6.60
2023-07-17T03:19:38.065Z,5.30
2023-07-17T03:22:06.657Z,5.70
2023-07-17T03:24:36.281Z,5.70
2023-07-17T03:27:05.159Z,5.50
2023-07-17T03:29:34.141Z,4.90
2023-07-17T03:32:02.817Z,5.20
2023-07-17T03:34:31.213Z,5.30
2023-07-17T03:36:59.753Z,6.00
2023-07-17T03:39:28.357Z,5.60
2023-07-17T03:41:56.539Z,5.40
2023-07-17T03:44:24.647Z,5.60
2023-07-17T03:46:53.184Z,6.50
2023-07-17T03:49:22.169Z,6.50
2023-07-17T03:51:50.787Z,7.40
2023-07-17T03:54:19.072Z,5.80
2023-07-17T03:56:47.839Z,6.00
2023-07-17T03:59:16.056Z,6.10
2023-07-17T04:01:44.648Z,7.30
2023-07-17T04:04:13.326Z,5.90
2023-07-17T04:06:41.869Z,5.90
2023-07-17T04:09:11.242Z,5.40
2023-07-17T04:11:41.139Z,5.10
2023-07-17T04:14:10.309Z,4.90
2023-07-17T04:16:38.811Z,5.80
2023-07-17T04:19:07.548Z,5.60
2023-07-17T04:21:35.900Z,6.60
2023-07-17T04:24:05.320Z,6.00
2023-07-17T04:26:43.324Z,7.20
2023-07-17T04:29:12.439Z,5.40
2023-07-17T04:31:41.250Z,6.30
2023-07-17T04:34:10.081Z,6.00
2023-07-17T04:36:38.800Z,4.50
2023-07-17T04:39:07.983Z,5.60
2023-07-17T04:41:36.855Z,4.90
2023-07-17T04:44:05.750Z,6.00
2023-07-17T04:46:36.052Z,6.40
2023-07-17T04:49:05.264Z,6.20
2023-07-17T04:51:36.609Z,6.30
2023-07-17T04:54:05.474Z,6.00
2023-07-17T04:56:33.806Z,6.50
2023-07-17T04:59:04.105Z,6.40
2023-07-17T05:01:33.131Z,7.10
2023-07-17T05:04:02.072Z,6.70
2023-07-17T05:06:30.921Z,6.80
2023-07-17T05:09:02.304Z,6.50
2023-07-17T05:11:31.695Z,6.20
2023-07-17T05:14:00.017Z,6.60
2023-07-17T05:16:29.023Z,7.20
2023-07-17T05:18:58.142Z,6.70
2023-07-17T05:21:26.823Z,6.30
2023-07-17T05:23:58.770Z,6.60
2023-07-17T05:26:27.622Z,6.10
2023-07-17T05:28:56.009Z,6.40
2023-07-17T05:31:24.858Z,6.90
2023-07-17T05:33:54.012Z,6.80
2023-07-17T05:36:22.419Z,6.80
2023-07-17T05:38:52.099Z,6.90
2023-07-17T05:41:20.640Z,6.80
2023-07-17T05:43:49.235Z,6.80
2023-07-17T05:46:18.768Z,6.40
2023-07-17T05:48:47.127Z,7.60
2023-07-17T05:51:15.662Z,7.20
2023-07-17T05:53:44.251Z,6.80
2023-07-17T05:56:13.207Z,7.40
2023-07-17T05:58:42.510Z,6.40
2023-07-17T06:01:10.876Z,6.30
2023-07-17T06:03:39.277Z,7.00
2023-07-17T06:06:10.033Z,6.80
2023-07-17T06:08:38.741Z,6.70
2023-07-17T06:11:06.985Z,7.20
2023-07-17T06:13:35.244Z,7.30
2023-07-17T06:16:04.347Z,6.50
2023-07-17T06:18:32.877Z,6.60
2023-07-17T06:21:02.103Z,6.20
2023-07-17T06:23:30.768Z,6.40
2023-07-17T06:26:01.818Z,6.20
2023-07-17T06:28:31.433Z,6.60
2023-07-17T06:31:00.200Z,5.80
2023-07-17T06:33:29.773Z,7.50
2023-07-17T06:35:58.719Z,6.00
2023-07-17T06:38:28.424Z,5.40
2023-07-17T06:40:56.662Z,5.70
2023-07-17T06:43:25.182Z,6.30
2023-07-17T06:45:53.766Z,6.20
2023-07-17T06:48:22.388Z,5.70
2023-07-17T06:50:50.776Z,6.30
2023-07-17T06:53:19.201Z,6.50
2023-07-17T06:55:47.721Z,5.70
2023-07-17T06:58:16.174Z,5.80
2023-07-17T07:00:44.741Z,6.00
2023-07-17T07:03:13.405Z,7.10
2023-07-17T07:05:42.128Z,5.70
2023-07-17T07:08:10.596Z,5.60
2023-07-17T07:10:39.080Z,8.20
2023-07-17T07:13:07.592Z,5.80
2023-07-17T07:15:36.185Z,5.80
2023-07-17T07:18:05.007Z,6.10
2023-07-17T07:20:33.544Z,6.60
2023-07-17T07:23:02.125Z,6.40
2023-07-17T07:25:30.989Z,6.70
2023-07-17T07:28:01.509Z,6.40
2023-07-17T07:30:30.715Z,6.20
2023-07-17T07:32:59.366Z,7.00
2023-07-17T07:35:27.829Z,6.70
2023-07-17T07:37:56.357Z,7.10
2023-07-17T07:40:24.993Z,6.50
2023-07-17T07:42:53.625Z,7.20
2023-07-17T07:45:22.584Z,6.70
2023-07-17T07:47:51.124Z,7.00
2023-07-17T07:50:21.091Z,6.20
2023-07-17T07:52:54.920Z,7.40
2023-07-17T07:55:23.901Z,6.40
2023-07-17T07:57:52.642Z,6.40
2023-07-17T08:00:21.060Z,7.50
2023-07-17T08:02:50.822Z,7.80
2023-07-17T08:05:19.550Z,6.10
2023-07-17T08:07:48.169Z,6.90
2023-07-17T08:10:17.369Z,7.60
2023-07-17T08:12:45.948Z,5.40
2023-07-17T08:15:15.880Z,5.60
2023-07-17T08:17:44.508Z,5.30
2023-07-17T08:20:16.699Z,6.90
2023-07-17T08:22:45.393Z,6.80
2023-07-17T08:25:17.290Z,5.80
2023-07-17T08:27:47.458Z,6.00
2023-07-17T08:30:16.298Z,6.30
2023-07-17T08:32:44.961Z,6.00
2023-07-17T08:35:13.502Z,5.20
2023-07-17T08:37:42.138Z,5.20
2023-07-17T08:40:14.749Z,5.90
2023-07-17T08:42:48.985Z,5.40
2023-07-17T08:45:17.646Z,6.30
2023-07-17T08:47:47.600Z,6.10
2023-07-17T08:50:16.721Z,6.30
2023-07-17T08:52:47.572Z,5.70
2023-07-17T08:55:15.897Z,5.90
2023-07-17T08:57:47.132Z,6.50
2023-07-17T09:00:17.409Z,6.00
2023-07-17T09:02:45.984Z,7.30
2023-07-17T09:05:14.502Z,6.70
2023-07-17T09:25:44.940Z,7.30
2023-07-17T09:28:12.491Z,6.00
2023-07-17T09:30:39.974Z,6.00
2023-07-17T09:33:08.018Z,6.40
2023-07-17T09:35:36.109Z,7.40
2023-07-17T09:38:09.887Z,7.10
2023-07-17T09:40:38.397Z,8.30
2023-07-17T09:43:07.228Z,7.20
2023-07-17T09:45:37.031Z,10.40
2023-07-17T09:48:06.220Z,7.00
2023-07-17T09:50:33.340Z,6.90
2023-07-17T09:53:02.365Z,8.00
2023-07-17T09:55:32.338Z,9.30
2023-07-17T09:58:04.621Z,6.50
2023-07-17T10:00:32.608Z,10.50
2023-07-17T10:03:10.120Z,6.80
2023-07-17T10:05:38.132Z,7.30
2023-07-17T10:08:11.474Z,6.50
2023-07-17T10:10:40.017Z,6.30
2023-07-17T10:13:09.563Z,6.00
2023-07-17T10:15:40.102Z,6.20
2023-07-17T10:18:13.740Z,7.10
2023-07-17T10:20:52.729Z,6.50
2023-07-17T10:23:25.062Z,7.30
2023-07-17T10:25:53.602Z,6.70
2023-07-17T10:28:32.079Z,6.90
2023-07-17T10:31:24.075Z,6.20
2023-07-17T10:33:52.500Z,6.80
2023-07-17T10:36:43.009Z,6.40
2023-07-17T10:39:24.067Z,7.50
2023-07-17T10:41:52.421Z,7.20
2023-07-17T10:44:20.874Z,6.40
2023-07-17T10:46:49.091Z,5.50
2023-07-17T10:49:18.504Z,6.20
2023-07-17T10:51:48.962Z,7.60
2023-07-17T10:54:17.854Z,6.60
2023-07-17T10:56:47.376Z,6.80
2023-07-17T10:59:17.689Z,6.80
2023-07-17T11:01:46.073Z,6.30
2023-07-17T11:04:13.363Z,6.30
2023-07-17T11:06:41.773Z,7.30
2023-07-17T11:09:09.232Z,6.70
2023-07-17T11:11:36.514Z,5.80
2023-07-17T11:14:05.678Z,7.10
2023-07-17T11:16:33.789Z,6.30
2023-07-17T11:19:05.032Z,7.10
2023-07-17T11:21:33.425Z,6.70
2023-07-17T11:24:02.298Z,6.90
2023-07-17T11:26:32.399Z,6.60
2023-07-17T11:29:01.521Z,7.50
2023-07-17T11:31:31.764Z,7.10
2023-07-17T11:34:05.400Z,9.70
2023-07-17T11:36:40.342Z,7.00
2023-07-17T11:39:11.738Z,7.50
2023-07-17T11:41:57.708Z,8.70
2023-07-17T11:44:25.565Z,6.80
2023-07-17T11:47:07.230Z,7.50
2023-07-17T11:49:36.465Z,7.00
2023-07-17T11:52:04.010Z,6.30
2023-07-17T11:54:43.061Z,6.80
2023-07-17T11:57:11.094Z,6.60
2023-07-17T11:59:39.356Z,7.80
2023-07-17T12:02:06.586Z,7.20
2023-07-17T12:04:44.896Z,7.00
2023-07-17T12:07:22.119Z,6.90
2023-07-17T12:09:51.057Z,7.10
2023-07-17T12:12:18.977Z,7.20
2023-07-17T12:14:47.039Z,7.10
2023-07-17T12:17:14.254Z,6.90
2023-07-17T12:19:44.126Z,6.40
2023-07-17T12:24:41.269Z,6.60
2023-07-17T12:27:12.954Z,5.90
2023-07-17T12:29:40.071Z,5.40
2023-07-17T12:32:07.302Z,5.60
2023-07-17T12:34:34.488Z,6.80
2023-07-17T12:37:01.700Z,6.00
2023-07-17T12:39:28.787Z,7.70
2023-07-17T12:41:56.238Z,5.50
2023-07-17T12:44:23.616Z,5.60
2023-07-17T12:46:50.841Z,5.60
2023-07-17T12:49:18.200Z,5.60
2023-07-17T12:51:45.293Z,5.90
2023-07-17T12:54:13.113Z,5.60
2023-07-17T12:56:41.903Z,5.80
2023-07-17T12:59:09.354Z,5.70
2023-07-17T13:01:37.222Z,5.90
2023-07-17T13:04:05.197Z,5.80
2023-07-17T13:06:32.467Z,6.20
2023-07-17T13:08:59.856Z,4.80
2023-07-17T13:11:27.164Z,4.20
2023-07-17T13:13:55.113Z,3.90
2023-07-17T13:16:22.681Z,5.30
2023-07-17T13:18:50.028Z,4.60
2023-07-17T13:21:17.631Z,3.50
2023-07-17T13:27:22.969Z,3.70
2023-07-17T13:29:51.577Z,4.60
2023-07-17T13:32:20.348Z,4.70
2023-07-17T13:34:49.117Z,4.30
2023-07-17T13:37:17.713Z,4.90
2023-07-17T13:39:46.289Z,5.20
2023-07-17T13:42:14.769Z,5.30
2023-07-17T13:44:43.495Z,5.80
2023-07-17T13:47:13.763Z,5.30
2023-07-17T13:49:42.676Z,5.30
2023-07-17T13:52:11.162Z,5.70
2023-07-17T13:54:40.861Z,4.70
2023-07-17T13:57:09.459Z,4.80
2023-07-17T13:59:43.661Z,5.20
2023-07-17T14:02:12.361Z,4.90
2023-07-17T14:04:41.297Z,5.10
2023-07-17T14:07:11.181Z,5.00
2023-07-17T14:09:39.884Z,4.90
2023-07-17T14:12:09.067Z,5.40
2023-07-17T14:14:37.848Z,7.80
2023-07-17T14:17:06.864Z,6.00
2023-07-17T14:19:35.463Z,6.50
2023-07-17T14:22:04.615Z,5.10
2023-07-17T14:24:37.541Z,6.50
2023-07-17T14:27:07.926Z,11.90
2023-07-17T14:29:36.594Z,6.90
2023-07-17T14:32:06.433Z,5.80
2023-07-17T14:34:40.999Z,5.40
2023-07-17T14:37:09.627Z,6.40
2023-07-17T14:39:38.301Z,6.40
2023-07-17T14:42:07.282Z,6.00
2023-07-17T14:44:36.306Z,6.40
2023-07-17T14:47:08.116Z,5.80
2023-07-17T14:49:37.815Z,7.10
2023-07-17T14:52:06.997Z,9.00
2023-07-17T14:54:35.425Z,6.90
2023-07-17T14:57:04.467Z,6.30
2023-07-17T14:59:34.165Z,5.70
2023-07-17T15:02:02.768Z,7.20
2023-07-17T15:04:31.279Z,7.40
2023-07-17T15:07:00.198Z,7.20
2023-07-17T15:09:28.808Z,6.20
2023-07-17T15:11:57.676Z,6.80
2023-07-17T15:14:27.777Z,6.20
2023-07-17T15:16:57.408Z,6.70
2023-07-17T15:19:25.876Z,6.30
2023-07-17T15:21:54.405Z,6.80
2023-07-17T15:24:22.915Z,6.20
2023-07-17T15:26:51.431Z,7.10
2023-07-17T15:29:20.047Z,6.70
2023-07-17T15:31:48.684Z,6.90
2023-07-17T15:34:17.413Z,7.40
2023-07-17T15:36:45.972Z,6.40
2023-07-17T15:39:14.704Z,8.70
2023-07-17T15:41:46.812Z,8.70
2023-07-17T15:44:15.510Z,7.40
2023-07-17T15:46:44.205Z,5.90
2023-07-17T15:49:12.971Z,6.40
2023-07-17T15:51:42.292Z,8.40
2023-07-17T15:54:10.880Z,6.60
2023-07-17T15:56:39.958Z,6.60
2023-07-17T15:59:08.640Z,5.60
2023-07-17T16:01:37.326Z,5.80
2023-07-17T16:04:06.624Z,6.40
2023-07-17T16:06:35.153Z,7.30
2023-07-17T16:09:03.800Z,6.30
2023-07-17T16:11:32.819Z,5.50
2023-07-17T16:14:01.373Z,6.40
2023-07-17T16:16:29.978Z,5.30
2023-07-17T16:18:58.730Z,6.00
2023-07-17T16:21:27.371Z,5.80
2023-07-17T16:23:55.907Z,6.30
2023-07-17T16:26:24.505Z,5.50
2023-07-17T16:28:53.296Z,5.30
2023-07-17T16:31:21.893Z,5.20
2023-07-17T16:34:02.478Z,6.10
2023-07-17T16:36:36.219Z,5.70
2023-07-17T16:39:05.122Z,5.90
2023-07-17T16:41:33.591Z,6.40
2023-07-17T16:44:02.462Z,5.90
2023-07-17T16:46:30.800Z,5.80
2023-07-17T16:48:59.547Z,6.10
2023-07-17T16:51:28.144Z,7.60
2023-07-17T16:53:56.821Z,7.10
2023-07-17T16:56:25.439Z,7.70
2023-07-17T16:58:54.021Z,8.50
2023-07-17T17:01:22.981Z,7.10
2023-07-17T17:03:51.709Z,6.70
2023-07-17T17:06:20.677Z,6.60
2023-07-17T17:09:20.153Z,7.30
2023-07-17T17:11:49.933Z,7.30
2023-07-17T17:14:18.683Z,6.10
2023-07-17T17:17:44.598Z,6.30
2023-07-17T17:20:13.323Z,6.10
2023-07-17T17:22:41.608Z,5.00
2023-07-17T17:25:09.334Z,5.50
2023-07-17T17:27:36.784Z,5.70
2023-07-17T17:30:04.643Z,6.30
2023-07-17T17:32:31.833Z,6.00
2023-07-17T17:34:59.104Z,6.10
2023-07-17T17:37:27.736Z,6.40
2023-07-17T17:39:55.243Z,7.30
2023-07-17T17:42:23.500Z,7.30
2023-07-17T17:44:50.931Z,6.30
2023-07-17T17:47:18.109Z,7.20
2023-07-17T17:49:46.987Z,8.00
2023-07-17T17:52:19.439Z,5.80
2023-07-17T17:54:47.431Z,6.10
2023-07-17T17:57:16.148Z,7.70
2023-07-17T17:59:45.817Z,7.60
2023-07-17T18:02:13.311Z,6.80
2023-07-17T18:04:40.754Z,5.60
2023-07-17T18:07:08.083Z,5.80
2023-07-17T18:09:36.449Z,6.00
2023-07-17T18:12:05.182Z,5.40
2023-07-17T18:14:32.140Z,5.70
2023-07-17T18:16:59.587Z,6.00
2023-07-17T18:19:27.933Z,5.90
2023-07-17T18:21:55.180Z,5.80
2023-07-17T18:24:22.453Z,5.90
2023-07-17T18:26:49.622Z,6.50
2023-07-17T18:29:16.720Z,6.60
2023-07-17T18:35:14.912Z,6.10
2023-07-17T18:37:43.347Z,6.10
2023-07-17T18:40:12.829Z,7.00
2023-07-17T18:42:41.393Z,6.10
2023-07-17T18:45:11.197Z,6.50
2023-07-17T18:47:40.501Z,5.70
2023-07-17T18:50:10.152Z,6.90
2023-07-17T18:52:38.789Z,7.50
2023-07-17T18:55:08.050Z,6.90
2023-07-17T18:57:36.861Z,5.80
2023-07-17T19:00:07.440Z,6.30
2023-07-17T19:02:35.906Z,7.10
2023-07-17T19:05:05.057Z,6.30
2023-07-17T19:07:33.382Z,7.90
2023-07-17T19:10:01.870Z,6.50
2023-07-17T19:12:30.342Z,7.60
2023-07-17T19:14:59.045Z,7.20
2023-07-17T19:17:27.406Z,6.90
2023-07-17T19:19:56.080Z,9.10
2023-07-17T19:22:24.665Z,8.70
2023-07-17T19:24:53.551Z,8.60
2023-07-17T19:27:22.043Z,8.30
2023-07-17T19:29:50.642Z,9.20
2023-07-17T19:32:24.329Z,8.20
2023-07-17T19:34:53.116Z,7.80
2023-07-17T19:37:22.118Z,7.90
2023-07-17T19:39:51.011Z,9.80
2023-07-17T19:42:19.582Z,8.20
2023-07-17T19:44:48.529Z,7.50
2023-07-17T19:47:18.194Z,8.70
2023-07-17T19:49:46.965Z,9.80
2023-07-17T19:52:16.280Z,11.20
2023-07-17T19:54:45.086Z,10.40
2023-07-17T19:57:13.843Z,10.30
2023-07-17T19:59:42.571Z,10.50
2023-07-17T20:02:11.536Z,10.70
2023-07-17T20:04:39.932Z,10.20
2023-07-17T20:07:09.711Z,9.90
2023-07-17T20:09:38.098Z,9.00
2023-07-17T20:12:07.383Z,8.60
2023-07-17T20:14:36.079Z,10.00
2023-07-17T20:17:06.308Z,8.30
2023-07-17T20:19:37.575Z,9.40
2023-07-17T20:22:05.835Z,9.10
2023-07-17T20:24:34.340Z,9.70
2023-07-17T20:27:05.087Z,8.40
2023-07-17T20:29:35.480Z,9.10
2023-07-17T20:32:06.693Z,8.20
2023-07-17T20:34:35.507Z,8.00
2023-07-17T20:37:04.367Z,7.80
2023-07-17T20:39:32.781Z,7.50
2023-07-17T20:42:01.281Z,7.90
2023-07-17T20:44:29.926Z,7.60
2023-07-17T20:46:58.434Z,10.80
2023-07-17T20:49:28.032Z,11.90
2023-07-17T20:51:57.094Z,9.70
2023-07-17T20:54:27.498Z,8.70
2023-07-17T20:56:57.781Z,7.30
2023-07-17T20:59:26.234Z,7.70
2023-07-17T21:01:54.740Z,7.90
2023-07-17T21:04:23.330Z,7.60
2023-07-17T21:25:37.192Z,12.90
2023-07-17T21:28:05.437Z,9.00
2023-07-17T21:30:33.401Z,10.00
2023-07-17T21:33:01.341Z,8.40
2023-07-17T21:35:28.512Z,7.40
2023-07-17T21:37:55.868Z,7.70
2023-07-17T21:40:23.281Z,7.60
2023-07-17T21:42:50.506Z,7.50
2023-07-17T21:45:17.829Z,11.60
2023-07-17T21:47:44.813Z,10.70
2023-07-17T21:50:12.080Z,11.10
2023-07-17T21:52:39.497Z,14.30
2023-07-17T21:55:11.469Z,15.30
2023-07-17T21:57:39.552Z,14.80
2023-07-17T22:00:10.520Z,14.30
2023-07-17T22:02:38.795Z,15.40
2023-07-17T22:05:06.873Z,14.50
2023-07-17T22:07:35.469Z,13.20
2023-07-17T22:10:02.556Z,12.90
2023-07-17T22:12:29.507Z,13.30
2023-07-17T22:14:56.860Z,13.60
2023-07-17T22:17:24.559Z,13.00
2023-07-17T22:19:52.424Z,13.30
2023-07-17T22:22:22.502Z,10.60
2023-07-17T22:24:51.280Z,12.30
2023-07-17T22:27:19.168Z,12.00
2023-07-17T22:29:47.631Z,12.80
2023-07-17T22:32:16.279Z,11.60
2023-07-17T22:34:43.302Z,10.30
2023-07-17T22:37:10.413Z,10.80
2023-07-17T22:39:37.743Z,8.60
2023-07-17T22:42:05.136Z,8.60
2023-07-17T22:44:32.092Z,8.40
2023-07-17T22:46:59.111Z,8.10
2023-07-17T22:49:31.693Z,7.20
2023-07-17T22:52:00.854Z,8.20
2023-07-17T22:54:31.843Z,9.10
2023-07-17T22:56:59.308Z,7.40
2023-07-17T22:59:29.094Z,8.10
2023-07-17T23:01:56.015Z,15.70
2023-07-17T23:04:23.930Z,8.10
2023-07-17T23:06:51.303Z,7.60
2023-07-17T23:09:18.496Z,8.80
2023-07-17T23:11:45.960Z,8.00
2023-07-17T23:14:13.143Z,7.90
2023-07-17T23:16:40.214Z,8.30
2023-07-17T23:19:07.522Z,8.00
2023-07-17T23:21:34.779Z,8.60
2023-07-17T23:24:01.740Z,13.30
2023-07-17T23:26:29.294Z,9.10
2023-07-17T23:28:56.465Z,9.10
2023-07-17T23:31:23.854Z,8.60
2023-07-17T23:33:51.129Z,7.70
2023-07-17T23:36:19.091Z,7.80
2023-07-17T23:38:46.062Z,8.00
2023-07-17T23:41:13.304Z,6.30
2023-07-17T23:43:40.411Z,5.90
2023-07-17T23:46:08.668Z,6.40
2023-07-17T23:48:38.677Z,6.80
2023-07-17T23:51:06.104Z,6.30
2023-07-17T23:53:33.142Z,7.30
2023-07-17T23:56:03.085Z,6.60
2023-07-17T23:58:30.313Z,6.80
